createdAt,value
2016-11-12T00:01:10.002Z,4.45
2016-11-12T00:02:23.880Z,4.45
2016-11-12T00:03:38.086Z,4.39
2016-11-12T00:04:52.198Z,4.36
2016-11-12T00:06:06.412Z,4.45
2016-11-12T00:07:20.512Z,4.28
2016-11-12T00:08:34.734Z,4.45
2016-11-12T00:10:03.888Z,4.36
2016-11-12T00:11:18.262Z,4.27
2016-11-12T00:12:47.654Z,4.32
2016-11-12T00:14:16.726Z,4.27
2016-11-12T00:15:30.718Z,4.18
2016-11-12T00:16:44.765Z,4.14
2016-11-12T00:17:58.915Z,4.18
2016-11-12T00:19:14.544Z,4.25
2016-11-12T00:20:29.123Z,4.22
2016-11-12T00:21:44.167Z,4.3
2016-11-12T00:23:14.775Z,4.28
2016-11-12T00:24:29.054Z,4.25
2016-11-12T00:25:42.841Z,4.27
2016-11-12T00:26:56.542Z,4.34
2016-11-12T00:28:10.993Z,4.36
2016-11-12T00:29:24.851Z,4.27
2016-11-12T00:30:38.971Z,4.27
2016-11-12T00:31:53.227Z,4.18
2016-11-12T00:33:07.690Z,4.24
2016-11-12T00:34:21.382Z,4.1
2016-11-12T00:35:35.203Z,4.21
2016-11-12T00:36:49.285Z,4.1
2016-11-12T00:38:06.007Z,4.28
2016-11-12T00:39:20.890Z,4.27
2016-11-12T00:40:34.762Z,4.27
2016-11-12T00:41:49.232Z,4.39
2016-11-12T00:43:04.163Z,4.31
2016-11-12T00:44:18.951Z,4.31
2016-11-12T00:45:33.150Z,4.28
2016-11-12T00:46:58.098Z,4.39
2016-11-12T00:48:26.927Z,4.38
2016-11-12T00:49:41.217Z,4.42
2016-11-12T00:50:56.209Z,4.32
2016-11-12T00:52:11.103Z,4.4
2016-11-12T00:53:27.942Z,4.42
2016-11-12T00:54:42.689Z,4.42
2016-11-12T00:55:57.036Z,4.38
2016-11-12T00:57:12.023Z,4.42
2016-11-12T00:58:27.639Z,4.39
2016-11-12T00:59:41.954Z,4.34
2016-11-12T01:00:56.231Z,4.43
2016-11-12T01:02:10.113Z,4.48
2016-11-12T01:03:23.957Z,4.49
2016-11-12T01:04:37.950Z,4.38
2016-11-12T01:05:52.601Z,4.39
2016-11-12T01:07:07.025Z,4.32
2016-11-12T01:08:21.236Z,4.25
2016-11-12T01:09:35.129Z,4.25
2016-11-12T01:10:49.718Z,4.42
2016-11-12T01:12:04.085Z,4.45
2016-11-12T01:13:19.176Z,4.4
2016-11-12T01:14:34.315Z,4.27
2016-11-12T01:15:48.718Z,4.24
2016-11-12T01:17:02.226Z,4.42
2016-11-12T01:18:17.332Z,4.38
2016-11-12T01:19:31.244Z,4.38
2016-11-12T01:20:44.904Z,4.43
2016-11-12T01:21:58.941Z,4.32
2016-11-12T01:23:12.549Z,4.24
2016-11-12T01:24:41.558Z,4.25
2016-11-12T01:25:55.892Z,4.27
2016-11-12T01:28:53.319Z,4.42
2016-11-12T01:30:08.108Z,4.4
2016-11-12T01:31:23.043Z,4.48
2016-11-12T01:32:37.781Z,4.46
2016-11-12T01:33:52.997Z,4.45
2016-11-12T01:35:07.737Z,4.5
2016-11-12T01:36:22.289Z,4.48
2016-11-12T01:37:36.462Z,4.53
2016-11-12T01:40:19.393Z,4.53
2016-11-12T01:41:33.450Z,4.56
2016-11-12T01:42:47.300Z,4.52
2016-11-12T01:44:00.836Z,4.49
2016-11-12T01:45:14.537Z,4.49
2016-11-12T01:46:28.756Z,4.53
2016-11-12T01:47:42.757Z,4.5
2016-11-12T01:48:56.831Z,4.46
2016-11-12T01:50:10.805Z,4.3
2016-11-12T01:51:24.735Z,4.42
2016-11-12T01:52:38.794Z,4.3
2016-11-12T01:53:53.202Z,4.39
2016-11-12T01:55:07.542Z,4.38
2016-11-12T01:56:23.567Z,4.38
2016-11-12T01:57:37.384Z,4.3
2016-11-12T01:58:51.499Z,4.38
2016-11-12T02:00:06.000Z,4.52
2016-11-12T02:01:19.875Z,4.39
2016-11-12T02:02:33.835Z,4.42
2016-11-12T02:03:47.785Z,4.27
2016-11-12T02:05:01.783Z,4.38
2016-11-12T02:06:15.879Z,4.42
2016-11-12T02:07:30.031Z,4.53
2016-11-12T02:08:43.796Z,4.46
2016-11-12T02:09:57.548Z,4.53
2016-11-12T02:11:11.989Z,4.53
2016-11-12T02:12:26.213Z,4.57
2016-11-12T02:13:40.690Z,4.56
2016-11-12T02:14:54.564Z,4.57
2016-11-12T02:16:08.124Z,4.64
2016-11-12T02:17:22.225Z,4.63
2016-11-12T02:18:36.958Z,4.71
2016-11-12T02:19:51.233Z,4.61
2016-11-12T02:21:04.826Z,4.64
2016-11-12T02:22:19.011Z,4.63
2016-11-12T02:23:33.207Z,4.58
2016-11-12T02:24:47.727Z,4.56
2016-11-12T02:26:02.134Z,4.63
2016-11-12T02:27:16.050Z,4.56
2016-11-12T02:28:30.028Z,4.63
2016-11-12T02:29:43.990Z,4.64
2016-11-12T02:30:58.879Z,4.53
2016-11-12T02:32:13.091Z,4.6
2016-11-12T02:33:27.297Z,4.53
2016-11-12T02:34:41.312Z,4.5
2016-11-12T02:35:54.981Z,4.48
2016-11-12T02:37:08.980Z,4.48
2016-11-12T02:38:22.984Z,4.45
2016-11-12T02:39:37.108Z,4.4
2016-11-12T02:40:50.814Z,4.39
2016-11-12T02:42:04.385Z,4.49
2016-11-12T02:43:18.866Z,4.53
2016-11-12T02:44:32.616Z,4.46
2016-11-12T02:45:46.711Z,4.52
2016-11-12T02:47:00.497Z,4.58
2016-11-12T02:48:14.663Z,4.45
2016-11-12T02:49:28.763Z,4.52
2016-11-12T02:50:42.590Z,4.52
2016-11-12T02:51:57.040Z,4.46
2016-11-12T02:53:10.898Z,4.5
2016-11-12T02:54:24.924Z,4.52
2016-11-12T02:55:38.972Z,4.5
2016-11-12T02:56:53.103Z,4.57
2016-11-12T02:58:06.688Z,4.5
2016-11-12T02:59:20.754Z,4.46
2016-11-12T03:00:34.675Z,4.56
2016-11-12T03:01:49.189Z,4.45
2016-11-12T03:03:03.385Z,4.38
2016-11-12T03:04:17.239Z,4.43
2016-11-12T03:05:31.563Z,4.34
2016-11-12T03:06:45.592Z,4.38
2016-11-12T03:07:59.833Z,4.27
2016-11-12T03:09:13.939Z,4.38
2016-11-12T03:10:28.267Z,4.28
2016-11-12T03:11:42.165Z,4.46
2016-11-12T03:12:58.647Z,4.27
2016-11-12T03:14:13.110Z,4.25
2016-11-12T03:15:26.927Z,4.32
2016-11-12T03:16:40.562Z,4.32
2016-11-12T03:17:54.923Z,4.27
2016-11-12T03:19:08.906Z,4.4
2016-11-12T03:20:23.049Z,4.38
2016-11-12T03:21:37.178Z,4.43
2016-11-12T03:22:51.040Z,4.48
2016-11-12T03:24:04.891Z,4.48
2016-11-12T03:25:19.039Z,4.5
2016-11-12T03:26:33.068Z,4.52
2016-11-12T03:27:47.271Z,4.53
2016-11-12T03:29:01.634Z,4.5
2016-11-12T03:30:15.481Z,4.5
2016-11-12T03:31:29.581Z,4.46
2016-11-12T03:34:12.711Z,4.52
2016-11-12T03:35:26.603Z,4.49
2016-11-12T03:36:40.239Z,4.56
2016-11-12T03:37:54.272Z,4.5
2016-11-12T03:39:08.118Z,4.56
2016-11-12T03:40:22.186Z,4.36
2016-11-12T03:41:36.129Z,4.43
2016-11-12T03:42:49.718Z,4.36
2016-11-12T03:44:03.668Z,4.5
2016-11-12T03:45:17.501Z,4.5
2016-11-12T03:46:31.938Z,4.52
2016-11-12T03:47:45.864Z,4.46
2016-11-12T03:48:59.410Z,4.45
2016-11-12T03:50:13.553Z,4.43
2016-11-12T03:51:27.398Z,4.38
2016-11-12T03:52:41.369Z,4.43
2016-11-12T03:53:55.059Z,4.48
2016-11-12T03:55:08.986Z,4.32
2016-11-12T03:56:22.904Z,4.39
2016-11-12T03:57:37.003Z,4.48
2016-11-12T03:58:50.828Z,4.4
2016-11-12T04:00:04.517Z,4.25
2016-11-12T04:01:18.489Z,4.31
2016-11-12T04:02:33.051Z,4.32
2016-11-12T04:03:47.052Z,4.4
2016-11-12T04:05:01.186Z,4.27
2016-11-12T04:06:14.935Z,4.38
2016-11-12T04:07:28.783Z,4.45
2016-11-12T04:08:43.218Z,4.31
2016-11-12T04:09:57.311Z,4.27
2016-11-12T04:14:08.576Z,4.2
2016-11-12T04:15:22.748Z,4.2
2016-11-12T04:16:36.575Z,4.22
2016-11-12T04:17:50.528Z,4.18
2016-11-12T04:19:04.933Z,4.18
2016-11-12T04:20:19.474Z,4.22
2016-11-12T04:21:33.818Z,4.18
2016-11-12T04:22:47.691Z,4.24
2016-11-12T04:24:01.491Z,4.27
2016-11-12T04:25:15.365Z,4.36
2016-11-12T04:26:29.783Z,4.36
2016-11-12T04:27:44.450Z,4.32
2016-11-12T04:28:58.241Z,4.42
2016-11-12T04:30:12.118Z,4.45
2016-11-12T04:31:28.181Z,4.38
2016-11-12T04:32:42.119Z,4.45
2016-11-12T04:33:56.836Z,4.36
2016-11-12T04:35:10.826Z,4.38
2016-11-12T04:39:21.930Z,4.38
2016-11-12T04:40:36.424Z,4.46
2016-11-12T04:41:50.563Z,4.53
2016-11-12T04:43:04.417Z,4.57
2016-11-12T04:44:18.294Z,4.45
2016-11-12T04:45:32.665Z,4.52
2016-11-12T04:46:47.847Z,4.4
2016-11-12T04:48:02.324Z,4.3
2016-11-12T04:49:16.563Z,4.28
2016-11-12T04:50:31.075Z,4.28
2016-11-12T04:51:45.013Z,4.27
2016-11-12T04:52:59.387Z,4.38
2016-11-12T04:54:13.312Z,4.36
2016-11-12T04:55:27.922Z,4.32
2016-11-12T04:56:41.946Z,4.38
2016-11-12T04:57:56.401Z,4.4
2016-11-12T04:59:10.755Z,4.39
2016-11-12T05:00:24.550Z,4.4
2016-11-12T05:01:38.383Z,4.36
2016-11-12T05:03:07.381Z,4.48
2016-11-12T05:04:21.378Z,4.48
2016-11-12T05:05:36.180Z,4.56
2016-11-12T05:06:50.478Z,4.57
2016-11-12T05:08:04.334Z,4.45
2016-11-12T05:09:18.354Z,4.49
2016-11-12T05:10:32.655Z,4.5
2016-11-12T05:11:47.012Z,4.56
2016-11-12T05:13:01.347Z,4.49
2016-11-12T05:14:15.677Z,4.48
2016-11-12T05:15:29.553Z,4.53
2016-11-12T05:16:43.684Z,4.49
2016-11-12T05:17:58.136Z,4.46
2016-11-12T05:19:12.118Z,4.52
2016-11-12T05:20:25.997Z,4.52
2016-11-12T05:21:40.207Z,4.57
2016-11-12T05:22:54.866Z,4.56
2016-11-12T05:24:08.974Z,4.48
2016-11-12T05:25:22.833Z,4.4
2016-11-12T05:26:36.665Z,4.46
2016-11-12T05:27:50.697Z,4.52
2016-11-12T05:29:04.781Z,4.52
2016-11-12T05:30:18.906Z,4.5
2016-11-12T05:31:32.886Z,4.5
2016-11-12T05:32:46.935Z,4.5
2016-11-12T05:34:00.800Z,4.52
2016-11-12T05:35:15.155Z,4.45
2016-11-12T05:36:29.077Z,4.49
2016-11-12T05:37:43.348Z,4.5
2016-11-12T05:38:57.453Z,4.5
2016-11-12T05:40:11.705Z,4.48
2016-11-12T05:41:26.039Z,4.48
2016-11-12T05:42:40.332Z,4.45
2016-11-12T05:43:54.396Z,4.39
2016-11-12T05:45:08.357Z,4.48
2016-11-12T05:46:22.398Z,4.48
2016-11-12T05:47:51.277Z,4.38
2016-11-12T05:49:05.397Z,4.42
2016-11-12T05:50:21.869Z,4.42
2016-11-12T05:51:51.314Z,4.38
2016-11-12T05:53:06.155Z,4.48
2016-11-12T05:54:20.250Z,4.5
2016-11-12T05:55:34.074Z,4.53
2016-11-12T05:56:47.852Z,4.46
2016-11-12T05:58:01.991Z,4.56
2016-11-12T05:59:16.012Z,4.5
2016-11-12T06:00:30.574Z,4.48
2016-11-12T06:01:46.232Z,4.46
2016-11-12T06:03:00.325Z,4.53
2016-11-12T06:04:14.315Z,4.53
2016-11-12T06:05:28.510Z,4.48
2016-11-12T06:06:42.569Z,4.34
2016-11-12T06:08:01.774Z,4.49
2016-11-12T06:09:21.373Z,4.38
2016-11-12T06:10:36.311Z,4.4
2016-11-12T06:11:51.175Z,4.39
2016-11-12T06:13:05.795Z,4.45
2016-11-12T06:14:19.845Z,4.39
2016-11-12T06:15:33.914Z,4.38
2016-11-12T06:16:48.372Z,4.38
2016-11-12T06:18:08.942Z,4.3
2016-11-12T06:19:32.515Z,4.4
2016-11-12T06:21:07.678Z,4.48
2016-11-12T06:22:31.593Z,4.42
2016-11-12T06:23:50.412Z,4.42
2016-11-12T06:25:06.240Z,4.46
2016-11-12T06:26:20.979Z,4.45
2016-11-12T06:27:35.330Z,4.49
2016-11-12T06:28:50.272Z,4.43
2016-11-12T06:30:05.053Z,4.6
2016-11-12T06:31:20.307Z,4.58
2016-11-12T06:32:35.487Z,4.61
2016-11-12T06:33:50.156Z,4.53
2016-11-12T06:35:07.457Z,4.52
2016-11-12T06:36:24.149Z,4.64
2016-11-12T06:37:38.576Z,4.58
2016-11-12T06:38:53.025Z,4.52
2016-11-12T06:40:07.029Z,4.64
2016-11-12T06:41:21.710Z,4.57
2016-11-12T06:42:36.164Z,4.64
2016-11-12T06:43:50.340Z,4.56
2016-11-12T06:45:05.867Z,4.53
2016-11-12T06:46:20.988Z,4.52
2016-11-12T06:47:35.071Z,4.57
2016-11-12T06:48:49.671Z,4.56
2016-11-12T06:50:04.800Z,4.56
2016-11-12T06:51:18.875Z,4.5
2016-11-12T06:52:35.552Z,4.49
2016-11-12T06:53:50.225Z,4.4
2016-11-12T06:55:09.227Z,4.49
2016-11-12T06:56:26.119Z,4.5
2016-11-12T06:57:40.424Z,4.52
2016-11-12T06:58:54.742Z,4.48
2016-11-12T07:00:08.500Z,4.36
2016-11-12T07:01:22.801Z,4.38
2016-11-12T07:02:37.292Z,4.31
2016-11-12T07:03:51.155Z,4.27
2016-11-12T07:05:04.949Z,4.32
2016-11-12T07:06:33.917Z,4.27
2016-11-12T07:08:02.945Z,4.31
2016-11-12T07:09:19.380Z,4.32
2016-11-12T07:10:32.989Z,4.42
2016-11-12T07:12:02.340Z,4.42
2016-11-12T07:13:16.724Z,4.38
2016-11-12T07:14:31.098Z,4.43
2016-11-12T07:15:45.086Z,4.49
2016-11-12T07:16:59.268Z,4.57
2016-11-12T07:18:13.619Z,4.57
2016-11-12T07:19:28.119Z,4.58
2016-11-12T07:20:42.240Z,4.48
2016-11-12T07:22:10.831Z,4.46
2016-11-12T07:23:24.896Z,4.48
2016-11-12T07:24:38.819Z,4.46
2016-11-12T07:26:07.809Z,4.52
2016-11-12T07:27:36.357Z,4.46
2016-11-12T07:28:50.195Z,4.48
2016-11-12T07:30:04.226Z,4.48
2016-11-12T07:31:17.782Z,4.43
2016-11-12T07:32:32.117Z,4.39
2016-11-12T07:34:00.634Z,4.52
2016-11-12T07:35:14.288Z,4.46
2016-11-12T07:36:28.177Z,4.43
2016-11-12T07:37:43.632Z,4.49
2016-11-12T07:38:59.426Z,4.45
2016-11-12T07:40:13.220Z,4.48
2016-11-12T07:41:27.321Z,4.58
2016-11-12T07:42:41.165Z,4.63
2016-11-12T07:44:09.863Z,4.57
2016-11-12T07:45:23.641Z,4.61
2016-11-12T07:46:37.722Z,4.56
2016-11-12T07:47:51.761Z,4.63
2016-11-12T07:49:05.607Z,4.6
2016-11-12T07:50:19.721Z,4.63
2016-11-12T07:51:33.658Z,4.6
2016-11-12T07:52:47.357Z,4.53
2016-11-12T07:54:16.319Z,4.68
2016-11-12T07:55:29.898Z,4.76
2016-11-12T07:56:44.061Z,4.78
2016-11-12T07:57:58.102Z,4.74
2016-11-12T07:59:12.731Z,4.67
2016-11-12T08:00:26.495Z,4.75
2016-11-12T08:01:40.124Z,4.66
2016-11-12T08:02:54.474Z,4.67
2016-11-12T08:04:08.154Z,4.7
2016-11-12T08:05:22.180Z,4.71
2016-11-12T08:06:36.160Z,4.67
2016-11-12T08:07:49.999Z,4.67
2016-11-12T08:09:04.188Z,4.67
2016-11-12T08:10:18.439Z,4.68
2016-11-12T08:11:32.433Z,4.71
2016-11-12T08:12:45.974Z,4.76
2016-11-12T08:14:15.296Z,4.66
2016-11-12T08:15:29.092Z,4.66
2016-11-12T08:16:42.896Z,4.7
2016-11-12T08:17:56.420Z,4.75
2016-11-12T08:19:10.102Z,4.82
2016-11-12T08:20:24.314Z,4.89
2016-11-12T08:21:38.375Z,4.95
2016-11-12T08:22:52.586Z,4.98
2016-11-12T08:24:06.495Z,5.05
2016-11-12T08:25:20.402Z,5.08
2016-11-12T08:26:34.127Z,5.1
2016-11-12T08:27:50.496Z,5.12
2016-11-12T08:29:04.985Z,5.2
2016-11-12T08:30:19.073Z,5.23
2016-11-12T08:31:33.376Z,5.4
2016-11-12T08:32:47.192Z,5.44
2016-11-12T08:35:05.410Z,5.43
2016-11-12T08:36:19.089Z,5.26
2016-11-12T08:37:32.997Z,5.23
2016-11-12T08:38:46.928Z,5.33
2016-11-12T08:40:00.725Z,5.37
2016-11-12T08:41:16.032Z,5.34
2016-11-12T08:42:30.223Z,5.38
2016-11-12T08:43:45.300Z,5.41
2016-11-12T08:44:59.192Z,5.44
2016-11-12T08:46:12.948Z,5.31
2016-11-12T08:47:27.352Z,5.28
2016-11-12T08:48:41.425Z,5.37
2016-11-12T08:49:55.357Z,5.43
2016-11-12T08:51:09.198Z,5.52
2016-11-12T08:52:23.045Z,5.52
2016-11-12T08:53:37.198Z,5.62
2016-11-12T08:54:51.539Z,5.56
2016-11-12T08:56:05.474Z,5.64
2016-11-12T08:57:19.304Z,5.64
2016-11-12T08:58:33.176Z,5.51
2016-11-12T08:59:47.109Z,5.64
2016-11-12T09:01:01.275Z,5.56
2016-11-12T09:02:15.403Z,5.49
2016-11-12T09:03:29.563Z,5.43
2016-11-12T09:04:43.421Z,5.44
2016-11-12T09:05:57.113Z,5.59
2016-11-12T09:07:11.466Z,5.64
2016-11-12T09:08:25.631Z,5.69
2016-11-12T09:09:39.746Z,5.69
2016-11-12T09:10:53.552Z,5.65
2016-11-12T09:12:07.338Z,5.61
2016-11-12T09:15:20.086Z,5.54
2016-11-12T09:17:03.363Z,5.62
2016-11-12T09:18:16.951Z,5.55
2016-11-12T09:19:30.736Z,5.62
2016-11-12T09:20:45.117Z,5.59
2016-11-12T09:21:59.425Z,5.59
2016-11-12T09:23:13.043Z,5.7
2016-11-12T09:24:26.881Z,5.84
2016-11-12T09:25:41.557Z,5.88
2016-11-12T09:26:55.705Z,5.84
2016-11-12T09:28:09.616Z,6.09
2016-11-12T09:29:38.226Z,6.09
2016-11-12T09:30:52.496Z,6.31
2016-11-12T09:32:06.219Z,6.32
2016-11-12T09:33:20.259Z,6.26
2016-11-12T09:34:34.522Z,6.17
2016-11-12T09:36:02.904Z,5.95
2016-11-12T09:37:16.926Z,5.95
2016-11-12T09:38:30.832Z,5.92
2016-11-12T09:39:44.654Z,6.01
2016-11-12T09:40:58.427Z,5.98
2016-11-12T09:43:41.257Z,6.05
2016-11-12T09:44:54.840Z,5.97
2016-11-12T09:46:08.438Z,5.97
2016-11-12T09:47:39.498Z,5.84
2016-11-12T09:48:53.963Z,6.07
2016-11-12T09:50:08.543Z,6.2
2016-11-12T09:51:22.821Z,6.15
2016-11-12T09:52:36.535Z,6.07
2016-11-12T09:53:50.305Z,6.01
2016-11-12T09:55:04.650Z,5.83
2016-11-12T09:57:47.758Z,5.84
2016-11-12T09:59:01.599Z,5.84
2016-11-12T10:00:15.325Z,5.97
2016-11-12T10:01:29.807Z,5.9
2016-11-12T10:02:43.883Z,5.98
2016-11-12T10:03:58.046Z,5.99
2016-11-12T10:05:12.494Z,5.99
2016-11-12T10:06:26.750Z,6.05
2016-11-12T10:07:41.496Z,5.95
2016-11-12T10:08:55.670Z,5.98
2016-11-12T10:10:09.500Z,5.97
2016-11-12T10:11:23.370Z,6.01
2016-11-12T10:12:37.579Z,5.95
2016-11-12T10:14:06.514Z,6.07
2016-11-12T10:15:21.023Z,6.1
2016-11-12T10:16:34.682Z,6.05
2016-11-12T10:17:48.383Z,6.1
2016-11-12T10:19:02.264Z,5.95
2016-11-12T10:20:16.154Z,6.05
2016-11-12T10:21:31.300Z,6.13
2016-11-12T10:22:45.402Z,6.2
2016-11-12T10:27:41.025Z,6.22
2016-11-12T10:28:55.144Z,6.17
2016-11-12T10:30:08.953Z,6.16
2016-11-12T10:31:22.641Z,6.28
2016-11-12T10:32:36.244Z,6.32
2016-11-12T10:33:50.089Z,6.46
2016-11-12T10:35:03.945Z,6.39
2016-11-12T10:36:17.629Z,6.28
2016-11-12T10:37:32.221Z,6.22
2016-11-12T10:38:46.214Z,6.32
2016-11-12T10:40:00.019Z,6.39
2016-11-12T10:41:15.169Z,6.44
2016-11-12T10:43:58.718Z,6.57
2016-11-12T10:45:13.301Z,6.68
2016-11-12T10:46:27.314Z,6.74
2016-11-12T10:47:41.583Z,6.72
2016-11-12T10:48:55.721Z,6.8
2016-11-12T10:50:09.224Z,6.78
2016-11-12T10:51:22.809Z,6.74
2016-11-12T10:52:36.923Z,6.71
2016-11-12T10:53:50.864Z,6.78
2016-11-12T10:55:04.344Z,6.75
2016-11-12T10:56:18.481Z,6.67
2016-11-12T10:57:32.405Z,6.75
2016-11-12T10:58:46.469Z,6.52
2016-11-12T11:00:01.044Z,6.54
2016-11-12T11:01:14.669Z,6.59
2016-11-12T11:02:29.160Z,6.46
2016-11-12T11:03:57.783Z,6.56
2016-11-12T11:05:11.721Z,6.71
2016-11-12T11:06:25.749Z,6.74
2016-11-12T11:07:42.450Z,6.77
2016-11-12T11:08:57.069Z,6.75
2016-11-12T11:10:10.846Z,6.85
2016-11-12T11:11:24.988Z,6.9
2016-11-12T11:12:38.977Z,6.95
2016-11-12T11:13:52.848Z,6.87
2016-11-12T11:15:07.471Z,6.83
2016-11-12T11:16:21.666Z,6.82
2016-11-12T11:17:36.407Z,6.72
2016-11-12T11:18:50.215Z,6.7
2016-11-12T11:20:04.676Z,6.7
2016-11-12T11:21:18.741Z,6.75
2016-11-12T11:22:33.307Z,6.8
2016-11-12T11:23:47.404Z,6.92
2016-11-12T11:25:01.207Z,6.87
2016-11-12T11:26:14.900Z,6.71
2016-11-12T11:27:29.254Z,6.83
2016-11-12T11:28:43.696Z,6.77
2016-11-12T11:29:58.330Z,6.8
2016-11-12T11:31:12.965Z,6.78
2016-11-12T11:32:27.713Z,6.64
2016-11-12T11:33:42.342Z,6.68
2016-11-12T11:34:56.831Z,6.7
2016-11-12T11:36:12.276Z,6.75
2016-11-12T11:37:28.280Z,6.74
2016-11-12T11:38:42.607Z,6.72
2016-11-12T11:39:57.712Z,6.57
2016-11-12T11:41:14.052Z,6.75
2016-11-12T11:42:29.104Z,6.89
2016-11-12T11:43:43.829Z,6.97
2016-11-12T11:44:58.075Z,7.15
2016-11-12T11:46:12.517Z,7.11
2016-11-12T11:47:27.729Z,7.28
2016-11-12T11:48:42.909Z,7.07
2016-11-12T11:49:57.739Z,7.23
2016-11-12T11:51:13.429Z,7.14
2016-11-12T11:52:27.915Z,7.11
2016-11-12T11:53:43.727Z,7.29
2016-11-12T11:54:58.118Z,7.41
2016-11-12T11:56:11.982Z,7.36
2016-11-12T11:57:25.548Z,7.43
2016-11-12T11:58:39.343Z,7.29
2016-11-12T11:59:52.977Z,7.32
2016-11-12T12:01:07.194Z,7.29
2016-11-12T12:02:21.754Z,7.15
2016-11-12T12:03:35.820Z,7.03
2016-11-12T12:04:49.537Z,7.04
2016-11-12T12:06:04.019Z,6.97
2016-11-12T12:07:17.949Z,7.01
2016-11-12T12:08:31.573Z,7.18
2016-11-12T12:09:45.159Z,7.11
2016-11-12T12:10:59.115Z,7
2016-11-12T12:12:12.978Z,6.78
2016-11-12T12:13:27.387Z,6.75
2016-11-12T12:14:41.367Z,6.7
2016-11-12T12:15:55.254Z,6.85
2016-11-12T12:17:08.900Z,6.87
2016-11-12T12:18:22.424Z,6.93
2016-11-12T12:19:36.189Z,6.85
2016-11-12T12:21:04.554Z,6.9
2016-11-12T12:22:18.774Z,6.85
2016-11-12T12:23:33.035Z,6.87
2016-11-12T12:24:49.204Z,6.83
2016-11-12T12:26:17.574Z,6.96
2016-11-12T12:27:31.596Z,6.97
2016-11-12T12:28:45.076Z,6.93
2016-11-12T12:30:24.831Z,7
2016-11-12T12:31:53.172Z,6.95
2016-11-12T12:33:06.727Z,7.01
2016-11-12T12:34:20.458Z,7.22
2016-11-12T12:35:35.276Z,7.25
2016-11-12T12:36:48.850Z,7.11
2016-11-12T12:38:02.887Z,7.01
2016-11-12T12:39:16.543Z,7.01
2016-11-12T12:40:30.267Z,7.03
2016-11-12T12:41:44.403Z,6.93
2016-11-12T12:42:59.087Z,6.93
2016-11-12T12:44:13.059Z,6.89
2016-11-12T12:45:27.361Z,6.9
2016-11-12T12:46:41.184Z,6.96
2016-11-12T12:47:55.007Z,6.97
2016-11-12T12:49:09.248Z,6.96
2016-11-12T12:50:23.697Z,7.13
2016-11-12T12:51:37.842Z,7.04
2016-11-12T12:52:52.185Z,7.23
2016-11-12T12:54:06.620Z,7.26
2016-11-12T12:55:20.537Z,7.23
2016-11-12T12:56:34.964Z,7.29
2016-11-12T12:57:48.973Z,7.21
2016-11-12T12:59:02.898Z,6.97
2016-11-12T13:00:16.862Z,7.08
2016-11-12T13:01:30.957Z,7.13
2016-11-12T13:02:45.111Z,7.28
2016-11-12T13:03:59.053Z,7.31
2016-11-12T13:05:13.501Z,7.36
2016-11-12T13:06:27.616Z,7.4
2016-11-12T13:07:41.759Z,7.46
2016-11-12T13:08:56.503Z,7.48
2016-11-12T13:10:11.719Z,7.44
2016-11-12T13:11:27.413Z,7.4
2016-11-12T13:12:41.681Z,7.4
2016-11-12T13:13:55.746Z,7.28
2016-11-12T13:15:10.484Z,7.31
2016-11-12T13:16:25.233Z,7.43
2016-11-12T13:17:39.333Z,7.4
2016-11-12T13:18:53.682Z,7.46
2016-11-12T13:20:07.623Z,7.61
2016-11-12T13:21:22.054Z,7.61
2016-11-12T13:22:35.598Z,7.64
2016-11-12T13:24:05.045Z,7.64
2016-11-12T13:25:19.931Z,7.62
2016-11-12T13:26:34.231Z,7.55
2016-11-12T13:27:49.730Z,7.53
2016-11-12T13:29:04.312Z,7.48
2016-11-12T13:30:18.570Z,7.51
2016-11-12T13:31:34.787Z,7.46
2016-11-12T13:32:49.166Z,7.43
2016-11-12T13:34:03.774Z,7.55
2016-11-12T13:35:19.576Z,7.58
2016-11-12T13:36:33.910Z,7.61
2016-11-12T13:37:48.274Z,7.61
2016-11-12T13:39:02.232Z,7.59
2016-11-12T13:40:16.701Z,7.55
2016-11-12T13:41:31.014Z,7.5
2016-11-12T13:42:48.598Z,7.53
2016-11-12T13:44:03.288Z,7.43
2016-11-12T13:45:18.359Z,7.5
2016-11-12T13:46:33.128Z,7.4
2016-11-12T13:47:47.852Z,7.33
2016-11-12T13:49:02.499Z,7.32
2016-11-12T13:50:17.587Z,7.28
2016-11-12T13:51:31.491Z,7.19
2016-11-12T13:52:47.146Z,7.08
2016-11-12T13:54:01.179Z,7.07
2016-11-12T13:55:15.017Z,7.14
2016-11-12T13:56:29.160Z,7.29
2016-11-12T13:57:43.467Z,7.29
2016-11-12T13:59:12.636Z,7.4
2016-11-12T14:00:26.889Z,7.37
2016-11-12T14:01:42.503Z,7.28
2016-11-12T14:02:56.312Z,7.14
2016-11-12T14:04:10.209Z,7.05
2016-11-12T14:05:24.683Z,6.97
2016-11-12T14:06:38.851Z,6.85
2016-11-12T14:07:53.264Z,6.83
2016-11-12T14:09:07.478Z,6.89
2016-11-12T14:10:22.185Z,6.86
2016-11-12T14:11:38.393Z,6.83
2016-11-12T14:12:52.618Z,6.89
2016-11-12T14:14:22.400Z,6.87
2016-11-12T14:15:37.515Z,6.78
2016-11-12T14:16:52.536Z,6.9
2016-11-12T14:18:07.075Z,6.92
2016-11-12T14:20:52.221Z,6.77
2016-11-12T14:22:05.952Z,6.74
2016-11-12T14:23:20.634Z,6.72
2016-11-12T14:24:34.508Z,6.74
2016-11-12T14:25:48.663Z,6.71
2016-11-12T14:27:05.141Z,6.72
2016-11-12T14:28:22.223Z,6.75
2016-11-12T14:29:39.960Z,6.77
2016-11-12T14:30:55.230Z,6.72
2016-11-12T14:32:17.302Z,6.7
2016-11-12T14:33:32.387Z,6.72
2016-11-12T14:34:46.586Z,6.82
2016-11-12T14:36:01.301Z,6.74
2016-11-12T14:37:15.401Z,6.74
2016-11-12T14:38:30.103Z,6.7
2016-11-12T14:39:59.353Z,6.7
2016-11-12T14:41:13.858Z,6.64
2016-11-12T14:42:28.242Z,6.71
2016-11-12T14:43:42.524Z,6.68
2016-11-12T14:44:56.780Z,6.68
2016-11-12T14:46:10.892Z,6.7
2016-11-12T14:47:24.866Z,6.65
2016-11-12T14:48:38.608Z,6.65
2016-11-12T14:49:53.028Z,6.59
2016-11-12T14:51:07.186Z,6.65
2016-11-12T14:52:21.554Z,6.57
2016-11-12T14:53:35.930Z,6.47
2016-11-12T14:54:49.814Z,6.54
2016-11-12T14:56:03.958Z,6.43
2016-11-12T14:57:17.763Z,6.31
2016-11-12T14:58:31.980Z,6.29
2016-11-12T14:59:45.856Z,6.28
2016-11-12T15:01:16.951Z,6.2
2016-11-12T15:02:31.260Z,6.2
2016-11-12T15:03:45.722Z,5.99
2016-11-12T15:05:14.219Z,6.06
2016-11-12T15:06:43.761Z,5.99
2016-11-12T15:07:57.966Z,5.94
2016-11-12T15:09:12.380Z,5.92
2016-11-12T15:10:27.041Z,5.94
2016-11-12T15:11:41.224Z,5.95
2016-11-12T15:12:55.182Z,5.91
2016-11-12T15:14:09.466Z,5.97
2016-11-12T15:15:23.985Z,5.88
2016-11-12T15:16:38.066Z,5.83
2016-11-12T15:17:51.728Z,5.9
2016-11-12T15:19:05.879Z,5.92
2016-11-12T15:20:19.993Z,5.83
2016-11-12T15:21:34.266Z,5.73
2016-11-12T15:22:48.323Z,5.8
2016-11-12T15:24:03.026Z,5.73
2016-11-12T15:25:17.786Z,5.74
2016-11-12T15:26:31.481Z,5.59
2016-11-12T15:27:45.853Z,5.55
2016-11-12T15:29:00.109Z,5.55
2016-11-12T15:30:15.345Z,5.43
2016-11-12T15:31:29.414Z,5.31
2016-11-12T15:32:44.710Z,5.23
2016-11-12T15:34:13.219Z,5.25
2016-11-12T15:35:27.428Z,5.2
2016-11-12T15:36:41.805Z,5.15
2016-11-12T15:37:55.693Z,5.12
2016-11-12T15:39:10.336Z,5.1
2016-11-12T15:40:23.982Z,5.08
2016-11-12T15:41:37.875Z,5.07
2016-11-12T15:42:53.541Z,5.08
2016-11-12T15:44:07.534Z,5.07
2016-11-12T15:45:21.929Z,5.12
2016-11-12T15:46:36.261Z,5.15
2016-11-12T15:47:50.563Z,5.15
2016-11-12T15:49:04.502Z,5.19
2016-11-12T15:50:18.397Z,5.28
2016-11-12T15:51:33.170Z,5.28
2016-11-12T15:52:47.137Z,5.19
2016-11-12T15:54:01.669Z,5.18
2016-11-12T15:55:15.914Z,5.07
2016-11-12T15:56:30.219Z,4.94
2016-11-12T15:57:44.952Z,4.98
2016-11-12T15:58:59.802Z,4.87
2016-11-12T16:00:13.872Z,4.83
2016-11-12T16:01:28.009Z,4.78
2016-11-12T16:02:41.802Z,4.7
2016-11-12T16:03:55.608Z,4.71
2016-11-12T16:05:09.444Z,4.64
2016-11-12T16:06:24.323Z,4.67
2016-11-12T16:07:38.429Z,4.64
2016-11-12T16:08:53.272Z,4.76
2016-11-12T16:10:07.698Z,4.78
2016-11-12T16:11:36.336Z,4.68
2016-11-12T16:12:50.643Z,4.63
2016-11-12T16:14:05.411Z,4.66
2016-11-12T16:15:20.370Z,4.71
2016-11-12T16:16:34.374Z,4.64
2016-11-12T16:17:49.144Z,4.67
2016-11-12T16:19:05.699Z,4.76
2016-11-12T16:20:19.741Z,4.66
2016-11-12T16:21:34.141Z,4.68
2016-11-12T16:22:47.694Z,4.71
2016-11-12T16:24:01.229Z,4.68
2016-11-12T16:25:15.104Z,4.66
2016-11-12T16:26:29.140Z,4.64
2016-11-12T16:27:44.100Z,4.64
2016-11-12T16:28:58.784Z,4.61
2016-11-12T16:30:12.730Z,4.76
2016-11-12T16:31:27.772Z,4.67
2016-11-12T16:32:41.958Z,4.84
2016-11-12T16:33:56.562Z,4.79
2016-11-12T16:35:10.446Z,4.83
2016-11-12T16:36:24.783Z,4.78
2016-11-12T16:37:38.954Z,4.84
2016-11-12T16:38:53.542Z,4.74
2016-11-12T16:40:08.582Z,4.78
2016-11-12T16:41:23.221Z,4.75
2016-11-12T16:42:37.680Z,4.68
2016-11-12T16:43:51.497Z,4.66
2016-11-12T16:45:06.917Z,4.82
2016-11-12T16:46:22.142Z,4.75
2016-11-12T16:47:35.871Z,4.68
2016-11-12T16:48:49.983Z,4.71
2016-11-12T16:50:04.389Z,4.66
2016-11-12T16:51:18.470Z,4.57
2016-11-12T16:52:32.491Z,4.58
2016-11-12T16:53:46.247Z,4.61
2016-11-12T16:55:00.139Z,4.58
2016-11-12T16:56:13.969Z,4.52
2016-11-12T16:57:27.810Z,4.52
2016-11-12T16:58:42.918Z,4.53
2016-11-12T16:59:56.834Z,4.57
2016-11-12T17:01:11.484Z,4.57
2016-11-12T17:02:25.332Z,4.52
2016-11-12T17:03:39.210Z,4.42
2016-11-12T17:04:53.591Z,4.45
2016-11-12T17:06:07.644Z,4.45
2016-11-12T17:07:22.925Z,4.43